Aviation Digital Data Service (ADDS)

Output produced by METARs form (1728 UTC 20 January 2019)
found at http://www.aviationweather.gov/metar/data/
 
FMMI 201700Z 08006KT 9999 VCTS FEW020CB SCT023 21/19 Q1017 TEMPO TS
TAF FMMI 201700Z 2018/2124 VRB04KT 9999 BKN020CB 
     PROB30 
     TEMPO 2018/2021 4000 TSRA 
     BECMG 2020/2023 FEW010 BKN020 
     BECMG 2107/2109 12010KT SCT017CB BKN020 
     PROB40 
     TEMPO 2112/2124 4000 TSRA
       
FMNA 201500Z 30008KT 8000 RA BKN020 SCT040 25/24 Q1009
TAF FMNA 201700Z 2018/2118 28010KT 9999 SCT020CB BKN040 
     TEMPO 2018/2118 4000 TSRA
       
FMNM 201700Z 28008KT 9999 SCT020CB 29/26 Q1008 NOSIG
TAF FMNM 201700Z 2018/2118 32008KT 9999 SCT020CB 
     TEMPO 2019/2118 4000 TSRA 
     PROB40 
     TEMPO 2112/2118 32015G25KT
       
FMNN 201500Z 26006KT 9999 -RA BKN020 BKN100 27/26 Q1008
TAF FMNN 201700Z 2018/2118 26008KT 9999 SCT020CB SCT040 
     PROB40 
     TEMPO 2018/2107 4000 TSRA
       
FMMS 201500Z 08002KT 9999 VCSH FEW017 BKN250 27/// Q1009
TAF FMMS 201700Z 2018/2118 08010KT 9999 SCT017CB BKN033 
     PROB40 
     TEMPO 2018/2112 4000 TSRA 
     BECMG 2105/2108 04020G30KT
       
FMMT 201700Z 05005KT 010V080 9999 TS FEW007 SCT017CB BKN033 27/25 Q1011 TEMPO 3500 TSRA
TAF FMMT 201700Z 2018/2118 06008KT 9999 FEW007 SCT017CB BKN033 
     PROB40 
     TEMPO 2018/2118 4000 TSRA
       
FMSD 201700Z 06002KT 9999 SCT016CB BKN040 29/25 Q1010
TAF FMSD 201700Z 2018/2118 14006KT 9999 SCT017CB SCT033 
     PROB30 
     TEMPO 2018/2024 4500 TSRA 
     PROB30 
     TEMPO 2104/2115 4000 TSRA
       
TAF FMST 201700Z 2018/2118 20006KT 9999 SCT020CB SCT040 
     PROB30 
     TEMPO 2018/2104 VRB15G25KT 4000 TSRA 
     BECMG 2104/2107 14012KT FEW020 SCT040 
     BECMG 2109/2112 FEW020CB SCT040 
     PROB30 
     TEMPO 2110/2116 TSRA